Ponce, PR

9:37 PM AST on May 24, 2015 (GMT -0400)
MACHUELO | | Change Station
CLOSE
Current Station
Personal Weather Station
Location: Ponce, PONCE
Elevation: 128 ft
Nearby Weather Stations

Elev 128 ft 18.03 °N, 66.60 °W | Updated 19 minutes ago

Haze
Haze
79.9 °F
Feels Like 83 °F
N
3.8
Wind Variable Wind from West
Gusts 4.5 mph

Today
High -- | Low -- °F
--% Chance of Precip.
Yesterday
High -- | Low -- °F
Precip. -- in
5:51 AM 6:55 PM
Waxing Crescent, 44% visible
Pressure 30.09 in
Visibility 7.0 miles
Clouds Scattered Clouds 2100 ft
Scattered Clouds 2800 ft
Heat Index 83 °F
Dew Point 71 °F
Humidity 75%
Rainfall 0.00 in
Snow Depth Not available.
UV 0 out of 12
Pollen Not available.
Air Quality Not available.
Flu Activity Local Activity
METAR TJBQ 250050Z 09013G18KT 7SM HZ SCT021 SCT028 26/22 A3009 RMK RWY08 ATIS T

More Conditions Fewer Conditions

Pressure 30.09 in
Visibility 7.0 miles
Clouds Scattered Clouds 2100 ft
Scattered Clouds 2800 ft
Heat Index 83 °F
Dew Point 71 °F
Humidity 75%
Rainfall 0.00 in
Snow Depth Not available.
UV 0 out of 12
Pollen Not available.
Air Quality Not available.
Flu Activity Local Activity
METAR TJBQ 250050Z 09013G18KT 7SM HZ SCT021 SCT028 26/22 A3009 RMK RWY08 ATIS T

More Conditions Fewer Conditions

10-Day Weather Forecast

Almanac

Astronomy

May. 24, 2015 Rise Set
Actual Time
Civil Twilight
Nautical Twilight
Astronomical Twilight
Moon
Length of Visible Light
Length of Day
Tomorrow will be .
, % of the Moon is Illuminated

Today's Extremes

State Highs State Lows

Community

WunderPhotos

Upload Photos

1,823,918 photos uploaded!

WunderBlogs® & News

Nearby

Air Quality

  Air Quality AQ Index Pollutant
Not available.

Snow Depth

Station Depth Elevation

Earthquake Activity

City Distance Mag. Time & Date
Minimum magnitude displayed is 2.5.

Coastal Water Temperatures

Place Temperature

Stations

Nearby Weather Stations

Station Location Temp. Windchill Dew Point Humidity Wind Precip. Elev Updated Type